CSC5144 ZSAM-ZSPD
Flight info
| Callsign | CSC5144 |
|---|---|
| Flight time | 1h 34m |
| Altitude | 29100 |
| Route | DOVPU5U DOVPU W643 FOC W644 ANLUD B221 SHZ W58 BK BK91A |
| Aircraft | B739/M-SDE2E3FGHIRWXY/LB1 |
Departure
| Time | 2026-05-06 08:44 |
|---|---|
| Airport | Xiamen Gaoqi International Airport (ZSAM) |
Arrival
| Time | 2026-05-06 10:18 |
|---|---|
| Airport | Shanghai Pudong International Airport (ZSPD) |
| Time | Latitude | Longitude | Altitude | Speed | Heading |
|---|---|---|---|---|---|
| 2026-05-06 08:17 | 24.53929 | 118.12773 | 56 ft | 0 kts | 142° |
| 2026-05-06 08:28 | 24.53930 | 118.12773 | 56 ft | 1 kts | 142° |
| 2026-05-06 08:28 | 24.53942 | 118.12761 | 52 ft | 2 kts | 138° |
| 2026-05-06 08:29 | 24.53954 | 118.12748 | 54 ft | 2 kts | 133° |
| 2026-05-06 08:29 | 24.53965 | 118.12735 | 50 ft | 2 kts | 123° |
| 2026-05-06 08:29 | 24.53972 | 118.12719 | 50 ft | 2 kts | 104° |
| 2026-05-06 08:29 | 24.53973 | 118.12701 | 50 ft | 2 kts | 70° |
| 2026-05-06 08:30 | 24.53967 | 118.12688 | 51 ft | 1 kts | 54° |
| 2026-05-06 08:30 | 24.53967 | 118.12687 | 51 ft | 0 kts | 53° |
| 2026-05-06 08:31 | 24.53974 | 118.12698 | 50 ft | 3 kts | 54° |
| 2026-05-06 08:31 | 24.53994 | 118.12728 | 52 ft | 7 kts | 54° |
| 2026-05-06 08:32 | 24.54039 | 118.12793 | 55 ft | 14 kts | 51° |
| 2026-05-06 08:32 | 24.54091 | 118.12856 | 51 ft | 5 kts | 38° |
| 2026-05-06 08:32 | 24.54122 | 118.12883 | 56 ft | 6 kts | 45° |
| 2026-05-06 08:32 | 24.54146 | 118.12921 | 50 ft | 6 kts | 58° |
| 2026-05-06 08:33 | 24.54169 | 118.12962 | 49 ft | 7 kts | 58° |
| 2026-05-06 08:33 | 24.54194 | 118.13007 | 53 ft | 7 kts | 64° |
| 2026-05-06 08:33 | 24.54221 | 118.13053 | 53 ft | 8 kts | 52° |
| 2026-05-06 08:33 | 24.54229 | 118.13064 | 54 ft | 0 kts | 51° |
| 2026-05-06 08:34 | 24.54230 | 118.13067 | 54 ft | 1 kts | 51° |
| 2026-05-06 08:37 | 24.54234 | 118.13072 | 50 ft | 2 kts | 51° |
| 2026-05-06 08:37 | 24.54243 | 118.13085 | 50 ft | 3 kts | 51° |
| 2026-05-06 08:38 | 24.54256 | 118.13102 | 54 ft | 3 kts | 49° |
| 2026-05-06 08:38 | 24.54275 | 118.13127 | 56 ft | 6 kts | 52° |
| 2026-05-06 08:38 | 24.54315 | 118.13183 | 52 ft | 13 kts | 52° |
| 2026-05-06 08:38 | 24.54376 | 118.13222 | 54 ft | 8 kts | 352° |
| 2026-05-06 08:39 | 24.54413 | 118.13182 | 54 ft | 8 kts | 313° |
| 2026-05-06 08:39 | 24.54457 | 118.13153 | 51 ft | 7 kts | 349° |
| 2026-05-06 08:39 | 24.54499 | 118.13181 | 53 ft | 8 kts | 50° |
| 2026-05-06 08:39 | 24.54539 | 118.13234 | 56 ft | 11 kts | 51° |
| 2026-05-06 08:40 | 24.54598 | 118.13315 | 52 ft | 16 kts | 53° |
| 2026-05-06 08:40 | 24.54672 | 118.13422 | 55 ft | 19 kts | 52° |
| 2026-05-06 08:40 | 24.54751 | 118.13533 | 52 ft | 18 kts | 51° |
| 2026-05-06 08:40 | 24.54827 | 118.13640 | 54 ft | 17 kts | 52° |
| 2026-05-06 08:41 | 24.54900 | 118.13743 | 52 ft | 17 kts | 52° |
| 2026-05-06 08:41 | 24.54976 | 118.13848 | 53 ft | 19 kts | 52° |
| 2026-05-06 08:41 | 24.55060 | 118.13965 | 53 ft | 20 kts | 52° |
| 2026-05-06 08:41 | 24.55138 | 118.14076 | 52 ft | 12 kts | 52° |
| 2026-05-06 08:42 | 24.55207 | 118.14128 | 51 ft | 12 kts | 4° |
| 2026-05-06 08:42 | 24.55289 | 118.14115 | 55 ft | 12 kts | 337° |
| 2026-05-06 08:42 | 24.55324 | 118.14045 | 52 ft | 12 kts | 256° |
| 2026-05-06 08:42 | 24.55293 | 118.13993 | 55 ft | 0 kts | 231° |
| 2026-05-06 08:43 | 24.55288 | 118.13987 | 52 ft | 6 kts | 231° |
| 2026-05-06 08:44 | 24.55080 | 118.13696 | 52 ft | 92 kts | 232° |
| 2026-05-06 08:44 | 24.54525 | 118.12918 | 55 ft | 163 kts | 231° |
| 2026-05-06 08:44 | 24.53805 | 118.11863 | 679 ft | 174 kts | 232° |
| 2026-05-06 08:44 | 24.53057 | 118.10800 | 1571 ft | 176 kts | 229° |
| 2026-05-06 08:45 | 24.52300 | 118.09763 | 2425 ft | 177 kts | 230° |
| 2026-05-06 08:45 | 24.51533 | 118.08709 | 3266 ft | 176 kts | 232° |
| 2026-05-06 08:45 | 24.50775 | 118.07661 | 4107 ft | 171 kts | 234° |
| 2026-05-06 08:45 | 24.49994 | 118.06576 | 4556 ft | 194 kts | 234° |
| 2026-05-06 08:46 | 24.49114 | 118.05346 | 4898 ft | 210 kts | 234° |
| 2026-05-06 08:46 | 24.48203 | 118.04074 | 5384 ft | 220 kts | 234° |
| 2026-05-06 08:46 | 24.47233 | 118.02721 | 5966 ft | 227 kts | 233° |
| 2026-05-06 08:46 | 24.47130 | 118.02577 | 6066 ft | 227 kts | 233° |
| 2026-05-06 08:47 | 24.46561 | 118.01782 | 6547 ft | 225 kts | 233° |
| 2026-05-06 08:48 | 24.45583 | 118.00418 | 7268 ft | 228 kts | 233° |
| 2026-05-06 08:48 | 24.44530 | 117.99101 | 7946 ft | 232 kts | 219° |
| 2026-05-06 08:48 | 24.44360 | 117.98958 | 8041 ft | 233 kts | 216° |
| 2026-05-06 08:48 | 24.42849 | 117.98272 | 8718 ft | 240 kts | 190° |
| 2026-05-06 08:49 | 24.41171 | 117.98388 | 9415 ft | 246 kts | 164° |
| 2026-05-06 08:49 | 24.41018 | 117.98442 | 9481 ft | 247 kts | 162° |
| 2026-05-06 08:49 | 24.40682 | 117.98591 | 9627 ft | 249 kts | 156° |
| 2026-05-06 08:49 | 24.39326 | 117.99762 | 10228 ft | 258 kts | 128° |
| 2026-05-06 08:50 | 24.38596 | 118.01545 | 10772 ft | 266 kts | 99° |
| 2026-05-06 08:50 | 24.38541 | 118.02140 | 10938 ft | 268 kts | 90° |
| 2026-05-06 08:50 | 24.38983 | 118.04111 | 11501 ft | 270 kts | 58° |
| 2026-05-06 08:51 | 24.39767 | 118.05301 | 11937 ft | 270 kts | 49° |
| 2026-05-06 08:51 | 24.40377 | 118.06102 | 12259 ft | 271 kts | 48° |
| 2026-05-06 08:51 | 24.41299 | 118.07314 | 12721 ft | 273 kts | 49° |
| 2026-05-06 08:52 | 24.42270 | 118.08616 | 13201 ft | 276 kts | 49° |
| 2026-05-06 08:52 | 24.43218 | 118.09909 | 13684 ft | 278 kts | 50° |
| 2026-05-06 08:52 | 24.43281 | 118.09996 | 13724 ft | 278 kts | 50° |
| 2026-05-06 08:53 | 24.44480 | 118.11651 | 14187 ft | 286 kts | 50° |
| 2026-05-06 08:53 | 24.45755 | 118.13432 | 14313 ft | 307 kts | 50° |
| 2026-05-06 08:53 | 24.47112 | 118.15341 | 14499 ft | 326 kts | 51° |
| 2026-05-06 08:53 | 24.48523 | 118.17331 | 14907 ft | 334 kts | 51° |
| 2026-05-06 08:54 | 24.49959 | 118.19360 | 15483 ft | 336 kts | 51° |
| 2026-05-06 08:54 | 24.51169 | 118.21069 | 15978 ft | 338 kts | 51° |
| 2026-05-06 08:54 | 24.52615 | 118.23112 | 16556 ft | 341 kts | 51° |
| 2026-05-06 08:54 | 24.54083 | 118.25186 | 17095 ft | 345 kts | 51° |
| 2026-05-06 08:55 | 24.55540 | 118.27245 | 17647 ft | 347 kts | 51° |
| 2026-05-06 08:55 | 24.57025 | 118.29345 | 18215 ft | 350 kts | 51° |
| 2026-05-06 08:55 | 24.58531 | 118.31473 | 18685 ft | 353 kts | 51° |
| 2026-05-06 08:55 | 24.60038 | 118.33604 | 19169 ft | 356 kts | 51° |
| 2026-05-06 08:56 | 24.61699 | 118.35634 | 19621 ft | 357 kts | 35° |
| 2026-05-06 08:56 | 24.63816 | 118.37065 | 20101 ft | 358 kts | 27° |
| 2026-05-06 08:56 | 24.65270 | 118.37929 | 20423 ft | 359 kts | 26° |
| 2026-05-06 08:56 | 24.65651 | 118.38152 | 20517 ft | 360 kts | 26° |
| 2026-05-06 08:57 | 24.66015 | 118.38364 | 20583 ft | 360 kts | 26° |
| 2026-05-06 08:57 | 24.68216 | 118.39641 | 21049 ft | 364 kts | 26° |
| 2026-05-06 08:58 | 24.70466 | 118.40955 | 21524 ft | 367 kts | 27° |
| 2026-05-06 08:58 | 24.72725 | 118.42290 | 22014 ft | 370 kts | 27° |
| 2026-05-06 08:58 | 24.74993 | 118.43643 | 22500 ft | 373 kts | 27° |
| 2026-05-06 08:58 | 24.77285 | 118.45017 | 22964 ft | 376 kts | 27° |
| 2026-05-06 08:59 | 24.79592 | 118.46406 | 23433 ft | 379 kts | 27° |
| 2026-05-06 08:59 | 24.81919 | 118.47807 | 23837 ft | 382 kts | 27° |
| 2026-05-06 08:59 | 24.84264 | 118.49219 | 24257 ft | 384 kts | 27° |
| 2026-05-06 08:59 | 24.86574 | 118.50638 | 24692 ft | 386 kts | 31° |
| 2026-05-06 09:00 | 24.88631 | 118.52559 | 25087 ft | 390 kts | 44° |
| 2026-05-06 09:00 | 24.90497 | 118.54737 | 25490 ft | 393 kts | 46° |
| 2026-05-06 09:00 | 24.92348 | 118.56968 | 25875 ft | 396 kts | 46° |
| 2026-05-06 09:00 | 24.94214 | 118.59224 | 26266 ft | 398 kts | 45° |
| 2026-05-06 09:01 | 24.96094 | 118.61479 | 26662 ft | 401 kts | 45° |
| 2026-05-06 09:01 | 24.97998 | 118.63742 | 27069 ft | 402 kts | 44° |
| 2026-05-06 09:01 | 24.98642 | 118.64505 | 27216 ft | 403 kts | 44° |
| 2026-05-06 09:02 | 24.99704 | 118.65759 | 27450 ft | 403 kts | 44° |
| 2026-05-06 09:02 | 25.01643 | 118.68042 | 27848 ft | 406 kts | 44° |
| 2026-05-06 09:03 | 25.03577 | 118.70314 | 28222 ft | 408 kts | 44° |
| 2026-05-06 09:03 | 25.05528 | 118.72605 | 28588 ft | 411 kts | 43° |
| 2026-05-06 09:03 | 25.06205 | 118.73401 | 28713 ft | 412 kts | 43° |
| 2026-05-06 09:04 | 25.06235 | 118.73435 | 28717 ft | 412 kts | 43° |
| 2026-05-06 09:04 | 25.07881 | 118.75369 | 29020 ft | 414 kts | 43° |
| 2026-05-06 09:05 | 25.09474 | 118.77241 | 29048 ft | 421 kts | 43° |
| 2026-05-06 09:06 | 25.10067 | 118.77937 | 29043 ft | 424 kts | 43° |
| 2026-05-06 09:06 | 25.12526 | 118.80829 | 29063 ft | 432 kts | 44° |
| 2026-05-06 09:07 | 25.14020 | 118.82587 | 29070 ft | 437 kts | 44° |
| 2026-05-06 09:07 | 25.18221 | 118.87538 | 29071 ft | 450 kts | 44° |
| 2026-05-06 09:08 | 25.22560 | 118.92661 | 29069 ft | 462 kts | 44° |
| 2026-05-06 09:08 | 25.26994 | 118.97894 | 29067 ft | 471 kts | 44° |
| 2026-05-06 09:09 | 25.31551 | 119.03199 | 29069 ft | 479 kts | 43° |
| 2026-05-06 09:09 | 25.36164 | 119.08544 | 29063 ft | 485 kts | 43° |
| 2026-05-06 09:10 | 25.40834 | 119.13976 | 29058 ft | 487 kts | 44° |
| 2026-05-06 09:10 | 25.45491 | 119.19408 | 29065 ft | 488 kts | 44° |
| 2026-05-06 09:11 | 25.50170 | 119.24872 | 29064 ft | 488 kts | 44° |
| 2026-05-06 09:11 | 25.54837 | 119.30329 | 29066 ft | 488 kts | 44° |
| 2026-05-06 09:12 | 25.59454 | 119.35776 | 29072 ft | 487 kts | 44° |
| 2026-05-06 09:12 | 25.64087 | 119.41263 | 29073 ft | 486 kts | 44° |
| 2026-05-06 09:13 | 25.68713 | 119.46741 | 29080 ft | 485 kts | 44° |
| 2026-05-06 09:13 | 25.69217 | 119.47338 | 29081 ft | 485 kts | 44° |
| 2026-05-06 09:14 | 25.72887 | 119.51687 | 29084 ft | 485 kts | 44° |
| 2026-05-06 09:14 | 25.77640 | 119.56962 | 29084 ft | 480 kts | 36° |
| 2026-05-06 09:15 | 25.83300 | 119.60748 | 29104 ft | 473 kts | 22° |
| 2026-05-06 09:15 | 25.89201 | 119.63986 | 29094 ft | 474 kts | 24° |
| 2026-05-06 09:16 | 25.95069 | 119.67316 | 29098 ft | 474 kts | 23° |
| 2026-05-06 09:16 | 25.98435 | 119.69190 | 29094 ft | 474 kts | 23° |
| 2026-05-06 09:17 | 26.04127 | 119.72344 | 29090 ft | 473 kts | 21° |
| 2026-05-06 09:17 | 26.10397 | 119.74302 | 29099 ft | 464 kts | 3° |
| 2026-05-06 09:18 | 26.12013 | 119.74480 | 29094 ft | 463 kts | 359° |
| 2026-05-06 09:18 | 26.16401 | 119.74343 | 29097 ft | 459 kts | 353° |
| 2026-05-06 09:19 | 26.22432 | 119.73875 | 29084 ft | 460 kts | 352° |
| 2026-05-06 09:19 | 26.28828 | 119.73425 | 29089 ft | 460 kts | 353° |
| 2026-05-06 09:20 | 26.35233 | 119.73025 | 29085 ft | 461 kts | 353° |
| 2026-05-06 09:20 | 26.41649 | 119.72629 | 29086 ft | 461 kts | 354° |
| 2026-05-06 09:20 | 26.44869 | 119.72774 | 29080 ft | 467 kts | 5° |
| 2026-05-06 09:21 | 26.48013 | 119.73594 | 29093 ft | 472 kts | 15° |
| 2026-05-06 09:21 | 26.51048 | 119.75033 | 29080 ft | 478 kts | 26° |
| 2026-05-06 09:21 | 26.53900 | 119.76973 | 29098 ft | 479 kts | 29° |
| 2026-05-06 09:22 | 26.59503 | 119.81035 | 29090 ft | 480 kts | 30° |
| 2026-05-06 09:22 | 26.65079 | 119.85062 | 29080 ft | 479 kts | 29° |
| 2026-05-06 09:23 | 26.70709 | 119.89056 | 29082 ft | 479 kts | 29° |
| 2026-05-06 09:23 | 26.76348 | 119.93031 | 29088 ft | 478 kts | 28° |
| 2026-05-06 09:24 | 26.81982 | 119.97007 | 29084 ft | 478 kts | 29° |
| 2026-05-06 09:24 | 26.87582 | 120.00967 | 29088 ft | 478 kts | 29° |
| 2026-05-06 09:25 | 26.92466 | 120.04427 | 29085 ft | 478 kts | 29° |
| 2026-05-06 09:25 | 26.97022 | 120.07658 | 29088 ft | 477 kts | 29° |
| 2026-05-06 09:26 | 27.02267 | 120.11380 | 29093 ft | 477 kts | 29° |
| 2026-05-06 09:26 | 27.07884 | 120.15372 | 29091 ft | 477 kts | 29° |
| 2026-05-06 09:27 | 27.13501 | 120.19366 | 29083 ft | 476 kts | 28° |
| 2026-05-06 09:27 | 27.19111 | 120.23306 | 29088 ft | 475 kts | 28° |
| 2026-05-06 09:28 | 27.24731 | 120.27239 | 29091 ft | 475 kts | 28° |
| 2026-05-06 09:28 | 27.30309 | 120.31158 | 29086 ft | 475 kts | 28° |
| 2026-05-06 09:29 | 27.34316 | 120.33978 | 29080 ft | 475 kts | 28° |
| 2026-05-06 09:29 | 27.39248 | 120.37458 | 29087 ft | 475 kts | 28° |
| 2026-05-06 09:30 | 27.43630 | 120.40575 | 29091 ft | 475 kts | 28° |
| 2026-05-06 09:30 | 27.49220 | 120.44564 | 29087 ft | 475 kts | 28° |
| 2026-05-06 09:31 | 27.54823 | 120.48563 | 29078 ft | 475 kts | 28° |
| 2026-05-06 09:31 | 27.60421 | 120.52562 | 29084 ft | 475 kts | 28° |
| 2026-05-06 09:32 | 27.65962 | 120.56525 | 29075 ft | 475 kts | 28° |
| 2026-05-06 09:32 | 27.71559 | 120.60507 | 29084 ft | 473 kts | 25° |
| 2026-05-06 09:33 | 27.77608 | 120.63165 | 29087 ft | 463 kts | 9° |
| 2026-05-06 09:33 | 27.83901 | 120.63997 | 29081 ft | 457 kts | 0° |
| 2026-05-06 09:34 | 27.90246 | 120.64532 | 29083 ft | 457 kts | 0° |
| 2026-05-06 09:34 | 27.96581 | 120.65100 | 29082 ft | 457 kts | 0° |
| 2026-05-06 09:35 | 28.02923 | 120.65706 | 29089 ft | 458 kts | 1° |
| 2026-05-06 09:35 | 28.09283 | 120.66327 | 29070 ft | 457 kts | 1° |
| 2026-05-06 09:36 | 28.15622 | 120.66948 | 29084 ft | 458 kts | 1° |
| 2026-05-06 09:36 | 28.21983 | 120.67568 | 29081 ft | 459 kts | 1° |
| 2026-05-06 09:37 | 28.28304 | 120.68186 | 29083 ft | 459 kts | 1° |
| 2026-05-06 09:37 | 28.34694 | 120.68811 | 29078 ft | 460 kts | 0° |
| 2026-05-06 09:38 | 28.41085 | 120.69437 | 29076 ft | 460 kts | 0° |
| 2026-05-06 09:38 | 28.47435 | 120.70060 | 29069 ft | 460 kts | 0° |
| 2026-05-06 09:39 | 28.53792 | 120.70683 | 29079 ft | 460 kts | 0° |
| 2026-05-06 09:39 | 28.59597 | 120.71254 | 29065 ft | 460 kts | 0° |
| 2026-05-06 09:40 | 28.65989 | 120.71884 | 29059 ft | 460 kts | 0° |
| 2026-05-06 09:40 | 28.75547 | 120.72872 | 29058 ft | 459 kts | 1° |
| 2026-05-06 09:41 | 28.81928 | 120.73571 | 29061 ft | 460 kts | 1° |
| 2026-05-06 09:41 | 28.88261 | 120.74251 | 29048 ft | 460 kts | 1° |
| 2026-05-06 09:42 | 28.94632 | 120.74908 | 29050 ft | 459 kts | 0° |
| 2026-05-06 09:42 | 29.01005 | 120.75561 | 29050 ft | 459 kts | 0° |
| 2026-05-06 09:43 | 29.06313 | 120.76109 | 29051 ft | 460 kts | 0° |
| 2026-05-06 09:43 | 29.13102 | 120.76812 | 29045 ft | 460 kts | 0° |
| 2026-05-06 09:44 | 29.16352 | 120.77150 | 29045 ft | 459 kts | 0° |
| 2026-05-06 09:44 | 29.19486 | 120.77475 | 29048 ft | 459 kts | 0° |
| 2026-05-06 09:45 | 29.25850 | 120.78136 | 29044 ft | 459 kts | 0° |
| 2026-05-06 09:45 | 29.32219 | 120.78799 | 29036 ft | 459 kts | 0° |
| 2026-05-06 09:46 | 29.34145 | 120.78999 | 29036 ft | 459 kts | 0° |
| 2026-05-06 09:46 | 29.36347 | 120.79229 | 29045 ft | 459 kts | 0° |
| 2026-05-06 09:47 | 29.42728 | 120.79894 | 29031 ft | 460 kts | 0° |
| 2026-05-06 09:47 | 29.49107 | 120.80561 | 29033 ft | 459 kts | 0° |
| 2026-05-06 09:48 | 29.55481 | 120.81253 | 29023 ft | 462 kts | 4° |
| 2026-05-06 09:48 | 29.58569 | 120.82357 | 29031 ft | 473 kts | 22° |
| 2026-05-06 09:48 | 29.61306 | 120.84438 | 29021 ft | 482 kts | 38° |
| 2026-05-06 09:49 | 29.63499 | 120.87392 | 29042 ft | 489 kts | 52° |
| 2026-05-06 09:49 | 29.64814 | 120.89660 | 29036 ft | 490 kts | 53° |
| 2026-05-06 09:49 | 29.65724 | 120.91281 | 29032 ft | 491 kts | 54° |
| 2026-05-06 09:50 | 29.69374 | 120.97912 | 29022 ft | 485 kts | 54° |
| 2026-05-06 09:50 | 29.73027 | 121.04421 | 29023 ft | 483 kts | 53° |
| 2026-05-06 09:51 | 29.74851 | 121.07623 | 28643 ft | 487 kts | 53° |
| 2026-05-06 09:51 | 29.76710 | 121.10872 | 28078 ft | 483 kts | 53° |
| 2026-05-06 09:51 | 29.78550 | 121.14091 | 27457 ft | 478 kts | 53° |
| 2026-05-06 09:51 | 29.80367 | 121.17273 | 26849 ft | 473 kts | 53° |
| 2026-05-06 09:52 | 29.82173 | 121.20440 | 26248 ft | 469 kts | 53° |
| 2026-05-06 09:52 | 29.83956 | 121.23571 | 25641 ft | 465 kts | 54° |
| 2026-05-06 09:52 | 29.85698 | 121.26631 | 25038 ft | 461 kts | 54° |
| 2026-05-06 09:52 | 29.87457 | 121.29724 | 24429 ft | 458 kts | 54° |
| 2026-05-06 09:53 | 29.89305 | 121.32688 | 23799 ft | 452 kts | 44° |
| 2026-05-06 09:53 | 29.91700 | 121.34970 | 23145 ft | 442 kts | 28° |
| 2026-05-06 09:53 | 29.94371 | 121.36680 | 22536 ft | 435 kts | 25° |
| 2026-05-06 09:53 | 29.97003 | 121.38272 | 21923 ft | 431 kts | 25° |
| 2026-05-06 09:54 | 29.99650 | 121.39859 | 21327 ft | 427 kts | 25° |
| 2026-05-06 09:54 | 30.02264 | 121.41441 | 20743 ft | 423 kts | 25° |
| 2026-05-06 09:54 | 30.04858 | 121.43032 | 20171 ft | 419 kts | 26° |
| 2026-05-06 09:54 | 30.07426 | 121.44624 | 19599 ft | 416 kts | 26° |
| 2026-05-06 09:55 | 30.09969 | 121.46210 | 19022 ft | 413 kts | 26° |
| 2026-05-06 09:55 | 30.12459 | 121.47767 | 18459 ft | 411 kts | 26° |
| 2026-05-06 09:55 | 30.14968 | 121.49339 | 17845 ft | 408 kts | 26° |
| 2026-05-06 09:55 | 30.17461 | 121.50901 | 17248 ft | 404 kts | 26° |
| 2026-05-06 09:56 | 30.19784 | 121.52356 | 16708 ft | 401 kts | 26° |
| 2026-05-06 09:56 | 30.21530 | 121.53450 | 16316 ft | 398 kts | 26° |
| 2026-05-06 09:56 | 30.23736 | 121.54831 | 15821 ft | 395 kts | 26° |
| 2026-05-06 09:56 | 30.26138 | 121.56340 | 15285 ft | 391 kts | 27° |
| 2026-05-06 09:57 | 30.28515 | 121.57870 | 14746 ft | 388 kts | 27° |
| 2026-05-06 09:57 | 30.30869 | 121.59402 | 14204 ft | 386 kts | 27° |
| 2026-05-06 09:57 | 30.33202 | 121.60919 | 13649 ft | 384 kts | 27° |
| 2026-05-06 09:57 | 30.35501 | 121.62410 | 13077 ft | 381 kts | 27° |
| 2026-05-06 09:58 | 30.37794 | 121.63914 | 12545 ft | 377 kts | 28° |
| 2026-05-06 09:58 | 30.40042 | 121.65474 | 12023 ft | 374 kts | 30° |
| 2026-05-06 09:58 | 30.42246 | 121.67040 | 11508 ft | 371 kts | 30° |
| 2026-05-06 09:58 | 30.44436 | 121.68599 | 10996 ft | 368 kts | 30° |
| 2026-05-06 09:59 | 30.46600 | 121.70134 | 10678 ft | 359 kts | 30° |
| 2026-05-06 09:59 | 30.48698 | 121.71615 | 10532 ft | 347 kts | 30° |
| 2026-05-06 09:59 | 30.50750 | 121.73060 | 10389 ft | 342 kts | 30° |
| 2026-05-06 09:59 | 30.52800 | 121.74501 | 10259 ft | 348 kts | 30° |
| 2026-05-06 10:00 | 30.54888 | 121.75950 | 10100 ft | 351 kts | 26° |
| 2026-05-06 10:00 | 30.57170 | 121.76794 | 9854 ft | 348 kts | 4° |
| 2026-05-06 10:00 | 30.59547 | 121.76627 | 9671 ft | 339 kts | 344° |
| 2026-05-06 10:00 | 30.61769 | 121.75860 | 9484 ft | 327 kts | 340° |
| 2026-05-06 10:01 | 30.63889 | 121.75030 | 9292 ft | 316 kts | 339° |
| 2026-05-06 10:01 | 30.65936 | 121.74218 | 9122 ft | 306 kts | 339° |
| 2026-05-06 10:01 | 30.67925 | 121.73439 | 8947 ft | 296 kts | 339° |
| 2026-05-06 10:01 | 30.69848 | 121.72698 | 8790 ft | 287 kts | 340° |
| 2026-05-06 10:02 | 30.71715 | 121.71986 | 8628 ft | 278 kts | 340° |
| 2026-05-06 10:02 | 30.73523 | 121.71301 | 8496 ft | 274 kts | 340° |
| 2026-05-06 10:02 | 30.75319 | 121.70622 | 8345 ft | 267 kts | 340° |
| 2026-05-06 10:02 | 30.77056 | 121.69967 | 8205 ft | 258 kts | 340° |
| 2026-05-06 10:03 | 30.78740 | 121.69332 | 8063 ft | 251 kts | 340° |
| 2026-05-06 10:03 | 30.80390 | 121.68712 | 7931 ft | 247 kts | 340° |
| 2026-05-06 10:03 | 30.82026 | 121.68096 | 7820 ft | 248 kts | 340° |
| 2026-05-06 10:03 | 30.83679 | 121.67475 | 7695 ft | 251 kts | 340° |
| 2026-05-06 10:04 | 30.85356 | 121.66843 | 7565 ft | 254 kts | 340° |
| 2026-05-06 10:04 | 30.87016 | 121.66212 | 7425 ft | 253 kts | 340° |
| 2026-05-06 10:04 | 30.88686 | 121.65576 | 7291 ft | 252 kts | 340° |
| 2026-05-06 10:04 | 30.90405 | 121.65143 | 7129 ft | 255 kts | 1° |
| 2026-05-06 10:05 | 30.92091 | 121.65721 | 7007 ft | 256 kts | 33° |
| 2026-05-06 10:05 | 30.93280 | 121.67232 | 6883 ft | 255 kts | 63° |
| 2026-05-06 10:05 | 30.93945 | 121.69138 | 6776 ft | 253 kts | 72° |
| 2026-05-06 10:05 | 30.94403 | 121.71113 | 6614 ft | 253 kts | 88° |
| 2026-05-06 10:06 | 30.94101 | 121.73100 | 6498 ft | 248 kts | 118° |
| 2026-05-06 10:06 | 30.93052 | 121.74648 | 6371 ft | 244 kts | 144° |
| 2026-05-06 10:06 | 30.91587 | 121.75553 | 6252 ft | 241 kts | 162° |
| 2026-05-06 10:06 | 30.89996 | 121.76169 | 6110 ft | 241 kts | 164° |
| 2026-05-06 10:07 | 30.88384 | 121.76752 | 5968 ft | 242 kts | 164° |
| 2026-05-06 10:07 | 30.86774 | 121.77328 | 5844 ft | 242 kts | 164° |
| 2026-05-06 10:07 | 30.85162 | 121.77919 | 5707 ft | 242 kts | 163° |
| 2026-05-06 10:07 | 30.83577 | 121.78510 | 5575 ft | 241 kts | 163° |
| 2026-05-06 10:08 | 30.81990 | 121.79106 | 5442 ft | 237 kts | 163° |
| 2026-05-06 10:08 | 30.80436 | 121.79691 | 5308 ft | 233 kts | 163° |
| 2026-05-06 10:08 | 30.78894 | 121.80267 | 5198 ft | 230 kts | 163° |
| 2026-05-06 10:08 | 30.77375 | 121.80834 | 5086 ft | 229 kts | 163° |
| 2026-05-06 10:09 | 30.75860 | 121.81400 | 4961 ft | 228 kts | 163° |
| 2026-05-06 10:09 | 30.74501 | 121.82320 | 4818 ft | 228 kts | 133° |
| 2026-05-06 10:09 | 30.73784 | 121.83895 | 4711 ft | 225 kts | 103° |
| 2026-05-06 10:09 | 30.73800 | 121.85691 | 4585 ft | 220 kts | 79° |
| 2026-05-06 10:10 | 30.74218 | 121.87350 | 4521 ft | 208 kts | 74° |
| 2026-05-06 10:10 | 30.74670 | 121.88918 | 4394 ft | 204 kts | 74° |
| 2026-05-06 10:10 | 30.75120 | 121.90481 | 4305 ft | 205 kts | 75° |
| 2026-05-06 10:10 | 30.75834 | 121.91932 | 4177 ft | 214 kts | 43° |
| 2026-05-06 10:11 | 30.77189 | 121.92625 | 4061 ft | 217 kts | 1° |
| 2026-05-06 10:11 | 30.78658 | 121.92312 | 3985 ft | 215 kts | 342° |
| 2026-05-06 10:11 | 30.80048 | 121.91771 | 3860 ft | 209 kts | 340° |
| 2026-05-06 10:11 | 30.81408 | 121.91225 | 3744 ft | 203 kts | 340° |
| 2026-05-06 10:12 | 30.82714 | 121.90714 | 3600 ft | 194 kts | 341° |
| 2026-05-06 10:12 | 30.83983 | 121.90227 | 3499 ft | 191 kts | 341° |
| 2026-05-06 10:12 | 30.85246 | 121.89749 | 3425 ft | 192 kts | 341° |
| 2026-05-06 10:12 | 30.86535 | 121.89262 | 3341 ft | 196 kts | 341° |
| 2026-05-06 10:13 | 30.87835 | 121.88772 | 3229 ft | 197 kts | 341° |
| 2026-05-06 10:13 | 30.89138 | 121.88281 | 3101 ft | 197 kts | 341° |
| 2026-05-06 10:13 | 30.90442 | 121.87790 | 3010 ft | 195 kts | 342° |
| 2026-05-06 10:13 | 30.91723 | 121.87308 | 2980 ft | 192 kts | 341° |
| 2026-05-06 10:14 | 30.92980 | 121.86834 | 2983 ft | 193 kts | 341° |
| 2026-05-06 10:14 | 30.94270 | 121.86346 | 2985 ft | 197 kts | 341° |
| 2026-05-06 10:14 | 30.95578 | 121.85862 | 2988 ft | 196 kts | 342° |
| 2026-05-06 10:14 | 30.96877 | 121.85387 | 2976 ft | 195 kts | 342° |
| 2026-05-06 10:15 | 30.98165 | 121.84904 | 2892 ft | 197 kts | 342° |
| 2026-05-06 10:15 | 30.99041 | 121.84572 | 2737 ft | 200 kts | 342° |
| 2026-05-06 10:15 | 30.99804 | 121.84282 | 2592 ft | 201 kts | 342° |
| 2026-05-06 10:15 | 31.01127 | 121.83779 | 2334 ft | 198 kts | 341° |
| 2026-05-06 10:16 | 31.02428 | 121.83285 | 2082 ft | 193 kts | 341° |
| 2026-05-06 10:16 | 31.03667 | 121.82814 | 1820 ft | 187 kts | 341° |
| 2026-05-06 10:16 | 31.04885 | 121.82353 | 1572 ft | 181 kts | 341° |
| 2026-05-06 10:16 | 31.06057 | 121.81907 | 1342 ft | 174 kts | 341° |
| 2026-05-06 10:17 | 31.07198 | 121.81473 | 1107 ft | 170 kts | 341° |
| 2026-05-06 10:17 | 31.08318 | 121.81048 | 902 ft | 169 kts | 342° |
| 2026-05-06 10:17 | 31.09405 | 121.80635 | 712 ft | 163 kts | 343° |
| 2026-05-06 10:17 | 31.10480 | 121.80227 | 469 ft | 160 kts | 343° |
| 2026-05-06 10:18 | 31.11539 | 121.79825 | 281 ft | 162 kts | 343° |
| 2026-05-06 10:18 | 31.12607 | 121.79420 | 55 ft | 160 kts | 343° |
| 2026-05-06 10:18 | 31.13509 | 121.79080 | 21 ft | 96 kts | 342° |
| 2026-05-06 10:18 | 31.13882 | 121.78929 | 19 ft | 35 kts | 342° |
| 2026-05-06 10:19 | 31.14057 | 121.78875 | 17 ft | 27 kts | 348° |
| 2026-05-06 10:19 | 31.14236 | 121.78873 | 19 ft | 24 kts | 12° |
| 2026-05-06 10:19 | 31.14285 | 121.78883 | 19 ft | 0 kts | 10° |
| 2026-05-06 10:20 | 31.14288 | 121.78884 | 19 ft | 1 kts | 10° |
| 2026-05-06 10:21 | 31.14289 | 121.78884 | 19 ft | 0 kts | 9° |